Kezdőlap
METAR-TAF:

METAR-TAF

Repülőterek :

N’Djamena, Csád

földrajzi szélesség: 12-08N, földrajzi hosszúság: 015-02E, magasság: 295 m

Jelenlegi meteorológiai megfigyelések

A jelentés 1 órával és 13 perccel ezelõtt készült, 17:00 UTC
Északkeleti szél 5 kt, északkeleti és kelet-délkeleti között változik
Hőmérséklet 41°C
Páratartalom 9%
Légköri nyomás 1004 hPa
Látótávolság: 7000 m

METAR: FTTJ 011700Z 05005KT 050V110 7000 NSC 41/02 Q1004 NOSIG

Idő: 19:13 (18:13 UTC)

Előrejelzés

A jelentés 1 órával és 13 perccel ezelõtt készült, 17:00 UTC
Az előrejelzés 01-én 18 óra UTC és 02-én 24 óra UTC között érvényes
Északkeleti szél 6 kt széllökések: 16 kt
Látótávolság: 4000 m
Száraz légköri homály
01-én 06 óra UTC és 01-én 08 óra UTC között fokozatosan kialakuló
Látótávolság: 6000 m

TAF: FTTJ 011700Z 0118/0224 04006G16KT 4000 HZ BECMG 0106/0108 6000 NSC

Meteorológiai megfigyelések és előrejelzések több, mint 4000 repülőtéren (METAR és TAF jelentéseket).

A térképen piros és sárga pontok jelzik az elérhető meteorológiai állomásokat.

Mozgassa az egeret a pont fölött, hogy megjelenjen az állomás neve.

Azután kattintson az időjárási megfigyelések és előrejelzések megtekintéséhez.

A térkép megváltoztatása: kattintson a fekete keresztel jelölt zöld gombra ráközelítéshez, a vonallal jelölt zöld gombra távolításhoz, vagy a zöld nyilakra a szomszédos térképek eléréséhez.


METAR-TAF: